createdAt,value
2023-04-29T00:01:05.900Z,14.53
2023-04-29T00:03:33.188Z,13.69
2023-04-29T00:06:00.619Z,14.40
2023-04-29T00:08:27.767Z,14.35
2023-04-29T00:10:54.374Z,13.75
2023-04-29T00:13:21.302Z,14.34
2023-04-29T00:15:48.108Z,13.79
2023-04-29T00:18:14.665Z,14.07
2023-04-29T00:20:41.932Z,14.09
2023-04-29T00:23:08.875Z,14.47
2023-04-29T00:25:36.049Z,14.38
2023-04-29T00:28:03.362Z,14.46
2023-04-29T00:30:30.235Z,13.91
2023-04-29T00:32:56.882Z,14.22
2023-04-29T00:35:23.574Z,14.29
2023-04-29T00:37:50.202Z,14.33
2023-04-29T00:40:17.441Z,14.10
2023-04-29T00:42:44.064Z,14.49
2023-04-29T00:45:11.585Z,14.64
2023-04-29T00:47:38.897Z,13.23
2023-04-29T00:50:07.982Z,13.48
2023-04-29T00:52:34.877Z,13.53
2023-04-29T00:55:01.686Z,13.85
2023-04-29T00:57:31.041Z,14.30
2023-04-29T00:59:58.895Z,14.10
2023-04-29T01:02:26.813Z,14.23
2023-04-29T01:04:53.597Z,13.33
2023-04-29T01:07:26.245Z,13.95
2023-04-29T01:10:11.634Z,14.32
2023-04-29T01:12:50.397Z,14.00
2023-04-29T01:15:29.259Z,13.73
2023-04-29T01:18:00.821Z,13.44
2023-04-29T01:20:28.047Z,13.54
2023-04-29T01:22:54.574Z,12.97
2023-04-29T01:25:21.105Z,13.48
2023-04-29T01:28:13.229Z,13.18
2023-04-29T01:30:49.196Z,14.01
2023-04-29T01:33:43.995Z,13.66
2023-04-29T01:36:19.635Z,13.24
2023-04-29T01:38:55.079Z,13.31
2023-04-29T01:41:33.171Z,13.35
2023-04-29T01:44:01.813Z,13.30
2023-04-29T01:46:28.758Z,13.86
2023-04-29T01:48:55.472Z,13.18
2023-04-29T01:51:22.342Z,13.40
2023-04-29T01:53:49.256Z,13.64
2023-04-29T01:56:16.136Z,13.49
2023-04-29T01:58:42.914Z,13.08
2023-04-29T02:01:10.488Z,13.57
2023-04-29T02:03:37.495Z,12.94
2023-04-29T02:06:04.454Z,13.96
2023-04-29T02:08:31.242Z,13.40
2023-04-29T02:10:59.888Z,13.63
2023-04-29T02:13:26.911Z,12.96
2023-04-29T02:15:53.480Z,13.08
2023-04-29T02:18:20.302Z,13.51
2023-04-29T02:20:46.824Z,13.30
2023-04-29T02:23:13.726Z,13.44
2023-04-29T02:25:40.294Z,13.29
2023-04-29T02:28:07.159Z,13.68
2023-04-29T02:30:33.991Z,13.70
2023-04-29T02:33:01.011Z,13.27
2023-04-29T02:35:27.769Z,12.81
2023-04-29T02:37:54.719Z,12.76
2023-04-29T02:40:21.705Z,12.57
2023-04-29T02:42:48.444Z,13.06
2023-04-29T02:45:15.170Z,13.55
2023-04-29T02:47:42.087Z,13.09
2023-04-29T02:50:09.076Z,13.01
2023-04-29T02:52:36.168Z,12.84
2023-04-29T02:55:03.162Z,13.45
2023-04-29T02:57:30.130Z,13.90
2023-04-29T02:59:57.406Z,13.74
2023-04-29T03:02:24.788Z,13.42
2023-04-29T03:04:51.441Z,13.59
2023-04-29T03:07:18.519Z,13.42
2023-04-29T03:09:45.319Z,12.88
2023-04-29T03:12:12.247Z,13.19
2023-04-29T03:14:38.832Z,12.75
2023-04-29T03:17:05.433Z,13.43
2023-04-29T03:19:32.225Z,13.27
2023-04-29T03:21:58.822Z,12.80
2023-04-29T03:24:25.462Z,13.15
2023-04-29T03:26:52.073Z,13.23
2023-04-29T03:29:18.867Z,13.32
2023-04-29T03:31:45.707Z,13.93
2023-04-29T03:34:14.563Z,13.59
2023-04-29T03:36:41.169Z,13.74
2023-04-29T03:39:07.789Z,13.47
2023-04-29T03:41:34.416Z,13.47
2023-04-29T03:44:01.230Z,13.02
2023-04-29T03:46:28.132Z,13.13
2023-04-29T03:48:57.971Z,12.65
2023-04-29T03:51:25.379Z,13.41
2023-04-29T03:53:53.035Z,13.05
2023-04-29T03:56:19.605Z,13.45
2023-04-29T03:58:46.500Z,13.46
2023-04-29T04:01:13.132Z,12.94
2023-04-29T04:03:40.074Z,12.46
2023-04-29T04:06:06.709Z,13.05
2023-04-29T04:08:33.240Z,13.24
2023-04-29T04:11:03.132Z,12.70
2023-04-29T04:13:30.028Z,13.44
2023-04-29T04:15:56.884Z,13.69
2023-04-29T04:18:23.848Z,13.61
2023-04-29T04:20:50.465Z,13.35
2023-04-29T04:23:17.979Z,13.35
2023-04-29T04:25:48.546Z,13.35
2023-04-29T04:28:15.827Z,12.86
2023-04-29T04:30:42.984Z,12.87
2023-04-29T04:33:10.706Z,13.08
2023-04-29T04:35:37.211Z,13.14
2023-04-29T04:38:04.349Z,12.99
2023-04-29T04:40:30.872Z,13.04
2023-04-29T04:42:57.433Z,12.63
2023-04-29T04:45:24.289Z,12.43
2023-04-29T04:47:51.059Z,12.66
2023-04-29T04:50:17.733Z,12.31
2023-04-29T04:52:44.324Z,13.04
2023-04-29T04:55:12.276Z,13.04
2023-04-29T04:57:40.373Z,12.81
2023-04-29T05:00:07.513Z,12.57
2023-04-29T05:02:34.298Z,13.01
2023-04-29T05:05:01.292Z,12.92
2023-04-29T05:07:27.813Z,13.38
2023-04-29T05:09:54.639Z,13.18
2023-04-29T05:12:21.559Z,13.57
2023-04-29T05:14:48.077Z,13.00
2023-04-29T05:17:14.586Z,13.32
2023-04-29T05:19:41.273Z,13.74
2023-04-29T05:22:08.011Z,13.80
2023-04-29T05:24:34.605Z,13.74
2023-04-29T05:27:01.100Z,13.31
2023-04-29T05:29:28.048Z,13.44
2023-04-29T05:31:54.517Z,13.51
2023-04-29T05:34:21.111Z,14.16
2023-04-29T05:36:48.083Z,13.96
2023-04-29T05:39:14.915Z,14.46
2023-04-29T05:41:41.700Z,14.16
2023-04-29T05:44:08.278Z,13.62
2023-04-29T05:46:35.094Z,14.09
2023-04-29T05:49:01.765Z,14.46
2023-04-29T05:51:28.535Z,14.26
2023-04-29T05:53:55.158Z,14.30
2023-04-29T05:56:22.448Z,14.00
2023-04-29T05:58:49.025Z,14.23
2023-04-29T06:01:17.375Z,14.25
2023-04-29T06:03:44.105Z,14.53
2023-04-29T06:06:11.310Z,14.39
2023-04-29T06:08:38.021Z,13.84
2023-04-29T06:11:05.377Z,14.31
2023-04-29T06:13:32.766Z,14.61
2023-04-29T06:15:59.249Z,14.00
2023-04-29T06:18:25.776Z,13.63
2023-04-29T06:20:52.459Z,14.22
2023-04-29T06:23:18.930Z,14.67
2023-04-29T06:25:45.424Z,14.66
2023-04-29T06:28:12.122Z,14.33
2023-04-29T06:30:38.600Z,12.46
2023-04-29T06:33:06.052Z,12.64
2023-04-29T06:35:32.660Z,12.87
2023-04-29T06:37:59.131Z,13.52
2023-04-29T06:40:26.070Z,12.81
2023-04-29T06:42:52.616Z,13.38
2023-04-29T06:45:19.173Z,13.41
2023-04-29T06:47:46.919Z,13.30
2023-04-29T06:50:13.646Z,13.26
2023-04-29T06:52:40.298Z,12.84
2023-04-29T06:55:07.218Z,13.46
2023-04-29T06:57:33.831Z,13.29
2023-04-29T07:00:00.886Z,13.86
2023-04-29T07:02:27.571Z,13.34
2023-04-29T07:04:54.417Z,13.52
2023-04-29T07:07:21.047Z,13.62
2023-04-29T07:09:48.654Z,13.69
2023-04-29T07:12:15.203Z,13.55
2023-04-29T07:14:41.968Z,12.92
2023-04-29T07:17:08.593Z,13.34
2023-04-29T07:19:35.936Z,13.83
2023-04-29T07:22:02.972Z,13.98
2023-04-29T07:24:29.674Z,14.52
2023-04-29T07:26:56.246Z,14.35
2023-04-29T07:29:22.827Z,13.56
2023-04-29T07:31:49.574Z,13.73
2023-04-29T07:34:16.209Z,13.62
2023-04-29T07:36:42.813Z,13.92
2023-04-29T07:39:09.785Z,13.77
2023-04-29T07:41:36.453Z,13.54
2023-04-29T07:44:04.108Z,13.60
2023-04-29T07:46:31.410Z,13.66
2023-04-29T07:48:58.434Z,14.10
2023-04-29T07:51:25.173Z,13.40
2023-04-29T07:53:52.038Z,13.69
2023-04-29T07:56:21.332Z,13.90
2023-04-29T07:58:47.968Z,13.24
2023-04-29T08:01:15.544Z,14.28
2023-04-29T08:03:42.577Z,13.51
2023-04-29T08:06:09.516Z,14.32
2023-04-29T08:08:37.541Z,14.02
2023-04-29T08:11:04.707Z,13.57
2023-04-29T08:13:31.546Z,13.81
2023-04-29T08:15:58.183Z,13.73
2023-04-29T08:18:25.197Z,13.50
2023-04-29T08:20:51.833Z,13.43
2023-04-29T08:23:18.714Z,13.80
2023-04-29T08:25:45.912Z,13.77
2023-04-29T08:28:13.229Z,14.14
2023-04-29T08:30:41.042Z,14.50
2023-04-29T08:33:08.510Z,13.69
2023-04-29T08:35:39.089Z,14.60
2023-04-29T08:38:06.828Z,14.69
2023-04-29T08:40:41.693Z,13.94
2023-04-29T08:43:10.239Z,13.95
2023-04-29T08:45:37.184Z,14.68
2023-04-29T08:48:04.320Z,14.92
2023-04-29T08:50:31.878Z,15.17
2023-04-29T08:52:59.277Z,15.43
2023-04-29T08:55:26.275Z,14.11
2023-04-29T08:57:55.121Z,15.56
2023-04-29T09:00:22.603Z,15.43
2023-04-29T09:02:54.051Z,15.23
2023-04-29T09:05:21.886Z,14.87
2023-04-29T09:07:48.801Z,14.98
2023-04-29T09:10:16.391Z,15.41
2023-04-29T09:12:43.062Z,15.75
2023-04-29T09:15:10.334Z,14.60
2023-04-29T09:17:44.472Z,15.48
2023-04-29T09:20:20.438Z,15.50
2023-04-29T09:22:51.058Z,16.14
2023-04-29T09:25:17.846Z,16.02
2023-04-29T09:27:44.923Z,16.43
2023-04-29T09:30:13.875Z,17.63
2023-04-29T09:32:41.071Z,17.53
2023-04-29T09:35:27.584Z,19.07
2023-04-29T09:38:08.987Z,19.96
2023-04-29T09:40:50.256Z,20.60
2023-04-29T09:43:24.649Z,20.88
2023-04-29T09:45:51.748Z,21.02
2023-04-29T09:48:18.680Z,21.01
2023-04-29T09:50:59.706Z,21.12
2023-04-29T09:53:31.179Z,19.97
2023-04-29T09:56:02.265Z,20.11
2023-04-29T09:58:31.182Z,20.17
2023-04-29T10:01:01.029Z,19.39
2023-04-29T10:03:34.620Z,20.02
2023-04-29T10:06:02.856Z,20.49
2023-04-29T10:08:30.181Z,19.25
2023-04-29T10:11:01.948Z,19.37
2023-04-29T10:13:29.037Z,19.59
2023-04-29T10:16:08.004Z,20.36
2023-04-29T10:18:41.696Z,20.94
2023-04-29T10:21:11.841Z,20.29
2023-04-29T10:23:39.373Z,19.98
2023-04-29T10:26:07.138Z,20.20
2023-04-29T10:28:33.753Z,20.89
2023-04-29T10:31:04.754Z,21.22
2023-04-29T10:33:35.303Z,21.30
2023-04-29T10:36:03.308Z,21.05
2023-04-29T10:38:35.846Z,20.21
2023-04-29T10:41:04.547Z,20.69
2023-04-29T10:43:32.005Z,20.79
2023-04-29T10:46:26.880Z,20.05
2023-04-29T10:48:59.580Z,22.09
2023-04-29T10:51:33.030Z,22.08
2023-04-29T10:54:02.122Z,21.95
2023-04-29T10:56:37.976Z,21.69
2023-04-29T10:59:04.944Z,20.32
2023-04-29T11:01:52.414Z,21.95
2023-04-29T11:04:22.729Z,21.84
2023-04-29T11:06:58.197Z,21.95
2023-04-29T11:09:27.136Z,22.33
2023-04-29T11:11:58.426Z,21.87
2023-04-29T11:14:26.821Z,22.78
2023-04-29T11:16:57.906Z,23.16
2023-04-29T11:19:29.273Z,22.58
2023-04-29T11:22:19.158Z,22.78
2023-04-29T11:25:02.091Z,21.86
2023-04-29T11:27:39.957Z,22.32
2023-04-29T11:30:07.764Z,21.61
2023-04-29T11:32:36.435Z,22.17
2023-04-29T11:35:10.116Z,22.91
2023-04-29T11:37:37.387Z,25.31
2023-04-29T11:40:05.471Z,24.94
2023-04-29T11:42:36.012Z,25.93
2023-04-29T11:45:02.744Z,25.53
2023-04-29T11:47:30.536Z,25.43
2023-04-29T11:50:04.987Z,25.50
2023-04-29T11:52:32.252Z,24.56
2023-04-29T11:55:00.201Z,24.22
2023-04-29T11:57:26.943Z,24.06
2023-04-29T11:59:53.815Z,22.88
2023-04-29T12:02:23.969Z,23.17
2023-04-29T12:04:51.736Z,21.97
2023-04-29T12:07:18.675Z,21.61
2023-04-29T12:09:49.121Z,20.55
2023-04-29T12:12:16.004Z,21.69
2023-04-29T12:14:43.237Z,21.53
2023-04-29T12:17:10.421Z,21.83
2023-04-29T12:19:39.182Z,21.06
2023-04-29T12:22:08.065Z,20.42
2023-04-29T12:24:39.786Z,20.75
2023-04-29T12:27:10.326Z,18.79
2023-04-29T12:29:37.672Z,20.06
2023-04-29T12:32:04.518Z,19.56
2023-04-29T12:34:32.385Z,19.81
2023-04-29T12:37:00.234Z,19.74
2023-04-29T12:39:27.681Z,19.39
2023-04-29T12:42:01.871Z,19.74
2023-04-29T12:44:36.557Z,19.10
2023-04-29T12:47:08.984Z,19.12
2023-04-29T12:49:37.180Z,19.53
2023-04-29T12:52:04.394Z,19.22
2023-04-29T12:54:31.123Z,19.33
2023-04-29T12:56:57.720Z,19.85
2023-04-29T12:59:24.351Z,19.55
2023-04-29T13:01:51.342Z,19.69
2023-04-29T13:04:18.044Z,20.33
2023-04-29T13:06:44.694Z,20.60
2023-04-29T13:09:17.479Z,19.62
2023-04-29T13:11:45.265Z,19.59
2023-04-29T13:14:12.161Z,19.97
2023-04-29T13:16:39.081Z,20.72
2023-04-29T13:19:18.027Z,20.56
2023-04-29T13:21:53.056Z,20.72
2023-04-29T13:24:20.929Z,20.97
2023-04-29T13:26:50.339Z,20.61
2023-04-29T13:29:18.869Z,20.60
2023-04-29T13:31:47.533Z,20.54
2023-04-29T13:34:14.327Z,20.25
2023-04-29T13:36:40.986Z,18.09
2023-04-29T13:39:07.815Z,19.71
2023-04-29T13:41:35.571Z,19.72
2023-04-29T13:44:03.020Z,19.91
2023-04-29T13:46:32.564Z,19.78
2023-04-29T13:54:49.290Z,18.97
2023-04-29T13:59:41.687Z,20.33
2023-04-29T14:04:31.572Z,19.61
2023-04-29T14:06:58.332Z,19.85
2023-04-29T14:09:25.064Z,19.41
2023-04-29T14:11:51.752Z,19.23
2023-04-29T14:14:18.481Z,19.63
2023-04-29T14:16:45.270Z,19.75
2023-04-29T14:19:11.994Z,19.11
2023-04-29T14:21:39.118Z,19.63
2023-04-29T14:24:05.883Z,19.47
2023-04-29T14:26:32.522Z,18.03
2023-04-29T14:29:00.141Z,18.97
2023-04-29T14:31:31.684Z,18.58
2023-04-29T14:33:58.577Z,17.71
2023-04-29T14:36:26.683Z,18.35
2023-04-29T14:38:53.404Z,17.34
2023-04-29T14:41:21.616Z,18.26
2023-04-29T14:43:48.345Z,17.97
2023-04-29T14:46:15.070Z,18.87
2023-04-29T14:48:41.746Z,19.07
2023-04-29T14:51:08.909Z,19.20
2023-04-29T14:53:36.613Z,19.36
2023-04-29T14:56:03.743Z,19.59
2023-04-29T14:58:30.915Z,19.40
2023-04-29T15:00:57.758Z,20.09
2023-04-29T15:03:24.889Z,19.53
2023-04-29T15:05:51.831Z,20.24
2023-04-29T15:08:19.383Z,19.80
2023-04-29T15:10:47.572Z,18.81
2023-04-29T15:13:14.995Z,20.45
2023-04-29T15:15:41.935Z,20.68
2023-04-29T15:18:09.159Z,20.11
2023-04-29T15:20:37.014Z,20.25
2023-04-29T15:23:05.492Z,20.34
2023-04-29T15:25:36.285Z,20.82
2023-04-29T15:28:05.124Z,20.14
2023-04-29T15:30:32.336Z,20.07
2023-04-29T15:32:59.297Z,20.33
2023-04-29T15:35:27.045Z,20.33
2023-04-29T15:37:54.050Z,19.47
2023-04-29T15:40:20.654Z,19.63
2023-04-29T15:42:47.712Z,20.53
2023-04-29T15:45:14.264Z,20.36
2023-04-29T15:47:40.942Z,20.78
2023-04-29T15:50:09.593Z,20.93
2023-04-29T15:52:36.900Z,21.35
2023-04-29T15:55:04.975Z,21.30
2023-04-29T15:57:31.634Z,20.86
2023-04-29T15:59:58.336Z,20.81
2023-04-29T16:02:25.285Z,20.31
2023-04-29T16:04:51.852Z,20.54
2023-04-29T16:07:18.435Z,20.25
2023-04-29T16:09:45.036Z,20.67
2023-04-29T16:12:13.084Z,20.16
2023-04-29T16:14:39.728Z,19.96
2023-04-29T16:17:06.778Z,19.85
2023-04-29T16:19:35.982Z,19.73
2023-04-29T16:22:03.778Z,19.09
2023-04-29T16:24:30.363Z,19.12
2023-04-29T16:26:58.887Z,18.71
2023-04-29T16:29:25.769Z,18.52
2023-04-29T16:31:52.954Z,18.82
2023-04-29T16:34:20.062Z,18.90
2023-04-29T16:36:47.008Z,17.91
2023-04-29T16:39:13.801Z,18.72
2023-04-29T16:41:41.294Z,18.65
2023-04-29T16:44:08.054Z,18.48
2023-04-29T16:46:35.326Z,19.03
2023-04-29T16:49:02.115Z,19.08
2023-04-29T16:51:29.200Z,18.86
2023-04-29T16:53:55.789Z,18.81
2023-04-29T16:56:22.606Z,18.96
2023-04-29T16:58:49.209Z,18.73
2023-04-29T17:01:16.435Z,18.40
2023-04-29T17:03:43.138Z,18.82
2023-04-29T17:06:09.829Z,18.96
2023-04-29T17:08:36.720Z,19.11
2023-04-29T17:11:04.771Z,18.75
2023-04-29T17:13:31.670Z,18.96
2023-04-29T17:15:58.390Z,19.16
2023-04-29T17:18:25.080Z,18.78
2023-04-29T17:20:51.654Z,18.77
2023-04-29T17:23:18.363Z,19.02
2023-04-29T17:25:45.129Z,18.93
2023-04-29T17:28:11.929Z,18.77
2023-04-29T17:30:38.694Z,18.30
2023-04-29T17:33:05.973Z,18.46
2023-04-29T17:35:33.714Z,18.82
2023-04-29T17:38:00.414Z,18.24
2023-04-29T17:40:27.540Z,18.39
2023-04-29T17:42:54.111Z,18.64
2023-04-29T17:45:20.743Z,18.19
2023-04-29T17:47:48.414Z,18.48
2023-04-29T17:50:15.393Z,18.10
2023-04-29T17:52:42.748Z,18.36
2023-04-29T17:55:10.109Z,18.76
2023-04-29T17:57:38.076Z,18.39
2023-04-29T18:00:07.307Z,18.62
2023-04-29T18:02:34.638Z,18.82
2023-04-29T18:05:03.529Z,18.72
2023-04-29T18:07:30.155Z,17.94
2023-04-29T18:09:57.043Z,18.59
2023-04-29T18:12:24.971Z,18.08
2023-04-29T18:14:51.975Z,18.67
2023-04-29T18:17:19.021Z,18.18
2023-04-29T18:19:49.658Z,18.57
2023-04-29T18:22:16.847Z,18.01
2023-04-29T18:24:43.699Z,18.22
2023-04-29T18:27:10.456Z,17.92
2023-04-29T18:29:37.950Z,18.23
2023-04-29T18:32:07.819Z,18.43
2023-04-29T18:34:34.966Z,18.30
2023-04-29T18:37:01.664Z,17.69
2023-04-29T18:39:28.445Z,18.30
2023-04-29T18:41:55.324Z,18.44
2023-04-29T18:44:21.992Z,17.96
2023-04-29T18:46:48.562Z,17.63
2023-04-29T18:49:18.104Z,17.61
2023-04-29T18:51:46.754Z,18.08
2023-04-29T18:54:15.234Z,17.71
2023-04-29T18:56:46.261Z,17.67
2023-04-29T18:59:15.798Z,17.26
2023-04-29T19:01:43.217Z,17.67
2023-04-29T19:04:10.266Z,17.30
2023-04-29T19:06:37.736Z,17.31
2023-04-29T19:09:05.489Z,17.34
2023-04-29T19:11:32.660Z,16.50
2023-04-29T19:13:59.262Z,17.53
2023-04-29T19:16:26.201Z,17.10
2023-04-29T19:18:53.614Z,17.28
2023-04-29T19:21:20.648Z,16.91
2023-04-29T19:23:47.767Z,16.99
2023-04-29T19:26:14.448Z,16.82
2023-04-29T19:28:41.147Z,16.96
2023-04-29T19:31:07.764Z,15.45
2023-04-29T19:33:34.633Z,16.40
2023-04-29T19:36:01.347Z,16.62
2023-04-29T19:38:28.035Z,16.69
2023-04-29T19:40:56.034Z,16.63
2023-04-29T19:43:23.106Z,16.58
2023-04-29T19:45:51.666Z,15.48
2023-04-29T19:48:18.222Z,16.51
2023-04-29T19:50:44.851Z,16.56
2023-04-29T19:53:11.743Z,16.39
2023-04-29T19:55:41.191Z,16.38
2023-04-29T19:58:07.967Z,15.73
2023-04-29T20:00:35.294Z,15.38
2023-04-29T20:03:02.759Z,16.39
2023-04-29T20:05:29.785Z,16.51
2023-04-29T20:07:56.375Z,16.43
2023-04-29T20:10:23.085Z,15.71
2023-04-29T20:12:50.523Z,16.05
2023-04-29T20:15:17.200Z,15.74
2023-04-29T20:17:44.141Z,15.01
2023-04-29T20:20:11.170Z,15.69
2023-04-29T20:22:38.491Z,15.69
2023-04-29T20:25:05.591Z,15.52
2023-04-29T20:27:32.351Z,15.65
2023-04-29T20:29:59.061Z,15.65
2023-04-29T20:32:26.822Z,15.26
2023-04-29T20:34:56.915Z,15.61
2023-04-29T20:37:23.602Z,15.43
2023-04-29T20:39:50.837Z,15.19
2023-04-29T20:42:17.556Z,14.73
2023-04-29T20:44:44.433Z,15.19
2023-04-29T20:47:11.050Z,15.14
2023-04-29T20:49:39.444Z,15.16
2023-04-29T20:52:08.959Z,15.30
2023-04-29T20:54:36.927Z,14.85
2023-04-29T20:57:05.570Z,15.26
2023-04-29T20:59:33.598Z,14.85
2023-04-29T21:02:00.242Z,15.15
2023-04-29T21:04:27.113Z,14.76
2023-04-29T21:06:53.760Z,14.80
2023-04-29T21:09:21.447Z,15.13
2023-04-29T21:11:48.376Z,14.39
2023-04-29T21:14:14.986Z,15.10
2023-04-29T21:16:42.407Z,14.80
2023-04-29T21:19:08.960Z,14.92
2023-04-29T21:21:35.610Z,14.70
2023-04-29T21:24:02.197Z,14.69
2023-04-29T21:26:29.101Z,14.45
2023-04-29T21:28:55.997Z,14.46
2023-04-29T21:31:24.309Z,14.49
2023-04-29T21:33:50.968Z,14.77
2023-04-29T21:36:17.649Z,14.51
2023-04-29T21:38:44.335Z,14.84
2023-04-29T21:41:28.222Z,14.78
2023-04-29T21:43:57.567Z,14.70
2023-04-29T21:46:25.201Z,14.74
2023-04-29T21:48:51.954Z,14.21
2023-04-29T21:51:22.963Z,14.40
2023-04-29T21:53:50.764Z,14.67
2023-04-29T21:56:17.420Z,14.35
2023-04-29T21:58:44.805Z,14.23
2023-04-29T22:01:39.344Z,14.07
2023-04-29T22:04:06.335Z,13.80
2023-04-29T22:06:34.505Z,13.72
2023-04-29T22:09:01.540Z,13.53
2023-04-29T22:11:28.608Z,13.37
2023-04-29T22:13:56.325Z,13.73
2023-04-29T22:16:23.564Z,13.24
2023-04-29T22:18:50.818Z,13.22
2023-04-29T22:21:17.993Z,13.20
2023-04-29T22:23:44.728Z,13.65
2023-04-29T22:26:11.362Z,13.21
2023-04-29T22:28:37.883Z,13.05
2023-04-29T22:31:04.623Z,13.13
2023-04-29T22:33:31.549Z,13.22
2023-04-29T22:35:58.203Z,13.77
2023-04-29T22:38:24.863Z,13.89
2023-04-29T22:40:52.250Z,13.13
2023-04-29T22:43:18.896Z,13.61
2023-04-29T22:45:55.399Z,14.02
2023-04-29T22:48:24.171Z,13.64
2023-04-29T22:50:53.739Z,13.89
2023-04-29T22:53:21.180Z,13.92
2023-04-29T22:55:55.204Z,13.93
2023-04-29T22:58:22.502Z,13.70
2023-04-29T23:00:57.032Z,13.00
2023-04-29T23:03:24.059Z,13.44
2023-04-29T23:05:51.568Z,13.58
2023-04-29T23:08:18.492Z,13.55
2023-04-29T23:10:49.515Z,13.33
2023-04-29T23:13:19.208Z,13.19
2023-04-29T23:15:45.980Z,13.54
2023-04-29T23:18:13.036Z,13.08
2023-04-29T23:20:39.724Z,13.44
2023-04-29T23:23:08.395Z,13.62
2023-04-29T23:25:35.002Z,13.70
2023-04-29T23:28:01.870Z,13.09
2023-04-29T23:30:28.507Z,13.54
2023-04-29T23:32:55.474Z,13.24
2023-04-29T23:35:22.321Z,11.12
2023-04-29T23:37:49.007Z,13.32
2023-04-29T23:40:16.056Z,12.79
2023-04-29T23:42:42.641Z,13.29
2023-04-29T23:45:09.461Z,13.29
2023-04-29T23:47:36.059Z,13.05
2023-04-29T23:50:04.022Z,12.99
2023-04-29T23:52:30.671Z,13.04
2023-04-29T23:54:57.564Z,12.15
2023-04-29T23:57:24.187Z,12.69
2023-04-29T23:59:50.850Z,12.38
